Garneill, Montana
Current Conditions -  °F | °C
As of 4:54 AM on Monday 22 Dec 2014 (Local Time) from KLWT Reporting Station
Broken Clouds Broken Clouds  
Wind Chill: -3°   Ceiling: 8000
Heat Index:   Visibility: 10mi
Dew Point: -4°   Wind: 10mph
Humidity: 67%   Direction: 290°WNW
Pressure: 29.72"   Gusts: NA
Location:  46.75°N, 109.75°W
Report Text: KLWT 221154Z AUTO 29009KT 10SM BKN080 01/M04 A2972 RMK AO2 SLP079 T00111044 10039 20011 53009
Loading
Personal Weather Stations






























Interactive Weather Map New forecast layout! Learn more

10-Day Weather Forecast

Advertisements
Track Severe Weather on mobile